createdAt,value
2019-05-12T00:03:37.797Z,99.90
2019-05-12T00:08:44.323Z,99.90
2019-05-12T00:13:52.473Z,99.90
2019-05-12T00:18:58.385Z,99.90
2019-05-12T00:24:13.755Z,99.90
2019-05-12T00:29:19.782Z,99.90
2019-05-12T00:34:23.563Z,99.90
2019-05-12T00:39:27.888Z,99.90
2019-05-12T00:44:31.676Z,99.90
2019-05-12T00:49:35.359Z,99.90
2019-05-12T00:54:44.993Z,99.90
2019-05-12T00:59:49.677Z,99.90
2019-05-12T01:04:53.862Z,99.90
2019-05-12T01:10:01.405Z,99.90
2019-05-12T01:15:09.132Z,99.90
2019-05-12T01:20:13.834Z,99.90
2019-05-12T01:25:20.567Z,99.90
2019-05-12T01:30:33.158Z,99.90
2019-05-12T01:35:32.524Z,99.90
2019-05-12T01:40:39.720Z,99.90
2019-05-12T01:45:44.557Z,99.90
2019-05-12T01:50:48.183Z,99.90
2019-05-12T01:55:54.960Z,99.90
2019-05-12T02:00:58.989Z,99.90
2019-05-12T02:06:08.280Z,99.90
2019-05-12T02:11:29.030Z,99.90
2019-05-12T02:16:41.198Z,99.90
2019-05-12T02:21:48.726Z,99.90
2019-05-12T02:26:57.943Z,99.90
2019-05-12T02:32:04.530Z,99.90
2019-05-12T02:37:09.283Z,99.90
2019-05-12T02:42:15.618Z,99.90
2019-05-12T02:47:19.770Z,99.90
2019-05-12T02:52:24.970Z,99.90
2019-05-12T02:57:30.508Z,99.90
2019-05-12T03:02:35.796Z,99.90
2019-05-12T03:07:44.784Z,99.90
2019-05-12T03:12:48.596Z,99.90
2019-05-12T03:17:55.063Z,99.90
2019-05-12T03:22:58.746Z,99.90
2019-05-12T03:28:04.908Z,99.90
2019-05-12T03:33:10.347Z,99.90
2019-05-12T03:38:14.923Z,99.90
2019-05-12T03:43:18.359Z,99.90
2019-05-12T03:48:25.058Z,99.90
2019-05-12T03:53:27.348Z,99.90
2019-05-12T03:58:34.356Z,99.90
2019-05-12T04:03:36.255Z,99.90
2019-05-12T04:08:39.873Z,99.90
2019-05-12T04:13:45.226Z,99.90
2019-05-12T04:18:48.772Z,99.90
2019-05-12T04:23:54.874Z,99.90
2019-05-12T04:28:57.641Z,99.90
2019-05-12T04:34:01.263Z,99.90
2019-05-12T04:39:07.140Z,99.90
2019-05-12T04:44:10.707Z,99.90
2019-05-12T04:49:15.708Z,99.90
2019-05-12T04:54:19.642Z,99.90
2019-05-12T04:59:25.372Z,99.90
2019-05-12T05:04:28.544Z,99.90
2019-05-12T05:09:34.833Z,99.90
2019-05-12T05:14:37.496Z,99.90
2019-05-12T05:19:41.128Z,99.90
2019-05-12T05:24:44.765Z,99.90
2019-05-12T05:29:48.454Z,99.90
2019-05-12T05:34:55.957Z,99.90
2019-05-12T05:39:57.431Z,99.90
2019-05-12T05:45:01.040Z,99.90
2019-05-12T05:50:07.022Z,99.90
2019-05-12T05:55:14.563Z,99.90
2019-05-12T06:00:22.991Z,99.90
2019-05-12T06:05:26.271Z,99.90
2019-05-12T06:10:35.304Z,99.90
2019-05-12T06:15:35.633Z,99.90
2019-05-12T06:20:39.281Z,99.90
2019-05-12T06:25:47.332Z,99.90
2019-05-12T06:30:50.255Z,99.90
2019-05-12T06:35:54.333Z,99.90
2019-05-12T06:40:58.054Z,99.90
2019-05-12T06:46:03.638Z,99.90
2019-05-12T06:51:09.094Z,99.90
2019-05-12T06:56:15.352Z,99.90
2019-05-12T07:01:19.323Z,99.90
2019-05-12T07:06:24.736Z,99.90
2019-05-12T07:11:41.298Z,99.90
2019-05-12T07:16:34.118Z,99.90
2019-05-12T07:21:37.895Z,99.90
2019-05-12T07:26:41.525Z,99.90
2019-05-12T07:31:45.207Z,99.90
2019-05-12T07:36:49.844Z,99.90
2019-05-12T07:41:54.974Z,99.90
2019-05-12T07:47:03.400Z,99.90
2019-05-12T07:52:05.995Z,99.90
2019-05-12T07:57:12.734Z,99.90
2019-05-12T08:02:15.035Z,99.90
2019-05-12T08:07:19.892Z,99.90
2019-05-12T08:12:24.000Z,99.90
2019-05-12T08:17:27.614Z,99.90
2019-05-12T08:22:31.268Z,99.90
2019-05-12T08:27:39.144Z,99.90
2019-05-12T08:32:40.245Z,99.90
2019-05-12T08:37:44.275Z,99.90
2019-05-12T08:42:47.939Z,99.90
2019-05-12T08:47:51.562Z,99.90
2019-05-12T08:52:55.219Z,99.90
2019-05-12T08:57:58.851Z,99.90
2019-05-12T09:03:03.604Z,99.90
2019-05-12T09:08:07.340Z,99.90
2019-05-12T09:13:11.129Z,99.90
2019-05-12T09:18:14.835Z,99.90
2019-05-12T09:23:18.378Z,99.90
2019-05-12T09:28:23.926Z,99.90
2019-05-12T09:33:51.549Z,99.90
2019-05-12T09:39:01.742Z,99.90
2019-05-12T09:44:01.782Z,99.90
2019-05-12T09:49:05.711Z,99.90
2019-05-12T09:54:09.341Z,99.90
2019-05-12T09:59:19.019Z,99.90
2019-05-12T10:04:19.740Z,99.90
2019-05-12T10:09:25.118Z,98.70
2019-05-12T10:14:28.752Z,96.30
2019-05-12T10:19:34.049Z,95.50
2019-05-12T10:24:41.551Z,99.90
2019-05-12T10:29:43.746Z,96.60
2019-05-12T10:34:47.619Z,96.60
2019-05-12T10:39:51.211Z,96.70
2019-05-12T10:44:56.744Z,94.70
2019-05-12T10:50:00.264Z,94.60
2019-05-12T10:55:07.088Z,91.60
2019-05-12T11:00:19.870Z,92.60
2019-05-12T11:05:23.220Z,93.40
2019-05-12T11:10:25.377Z,93.20
2019-05-12T11:15:29.080Z,93.80
2019-05-12T11:20:34.426Z,92.60
2019-05-12T11:25:38.204Z,92.70
2019-05-12T11:30:43.707Z,91.90
2019-05-12T11:35:49.125Z,82.20
2019-05-12T11:40:53.783Z,83.00
2019-05-12T11:45:57.566Z,82.50
2019-05-12T11:51:03.731Z,79.40
2019-05-12T11:56:07.581Z,77.40
2019-05-12T12:01:13.569Z,77.80
2019-05-12T12:06:17.306Z,78.20
2019-05-12T12:11:25.555Z,68.00
2019-05-12T12:16:26.241Z,68.90
2019-05-12T12:21:31.947Z,66.30
2019-05-12T12:26:37.328Z,66.00
2019-05-12T12:31:51.001Z,66.80
2019-05-12T12:36:54.705Z,66.80
2019-05-12T12:42:00.475Z,99.90
2019-05-12T12:47:03.670Z,99.90
2019-05-12T12:52:07.297Z,99.90
2019-05-12T12:57:10.927Z,99.90
2019-05-12T13:02:14.550Z,99.90
2019-05-12T13:07:18.241Z,99.90
2019-05-12T13:12:21.845Z,99.90
2019-05-12T13:17:27.238Z,99.90
2019-05-12T13:22:30.727Z,99.90
2019-05-12T13:27:36.806Z,99.90
2019-05-12T13:32:39.700Z,99.90
2019-05-12T13:37:43.745Z,99.90
2019-05-12T13:42:47.381Z,99.90
2019-05-12T13:47:53.063Z,99.90
2019-05-12T13:53:01.075Z,99.90
2019-05-12T13:58:01.620Z,99.90
2019-05-12T14:03:09.482Z,99.90
2019-05-12T14:08:10.636Z,99.90
2019-05-12T14:13:14.263Z,99.90
2019-05-12T14:18:20.558Z,99.90
2019-05-12T14:23:23.945Z,99.90
2019-05-12T14:28:27.802Z,99.90
2019-05-12T14:33:37.454Z,99.90
2019-05-12T14:38:36.751Z,99.90
2019-05-12T14:43:40.436Z,99.90
2019-05-12T14:48:46.405Z,99.90
2019-05-12T14:53:49.390Z,99.90
2019-05-12T14:58:56.440Z,99.90
2019-05-12T15:03:58.302Z,99.90
2019-05-12T15:09:03.341Z,99.90
2019-05-12T15:14:07.087Z,99.90
2019-05-12T15:19:10.732Z,99.90
2019-05-12T15:24:18.612Z,99.90
2019-05-12T15:29:20.222Z,99.90
2019-05-12T15:34:23.933Z,99.90
2019-05-12T15:39:27.544Z,99.90
2019-05-12T15:44:33.963Z,99.90
2019-05-12T15:49:36.618Z,99.90
2019-05-12T15:54:45.687Z,99.90
2019-05-12T15:59:45.514Z,99.90
2019-05-12T16:04:49.213Z,99.90
2019-05-12T16:09:54.640Z,99.90
2019-05-12T16:14:58.164Z,99.90
2019-05-12T16:20:03.641Z,99.90
2019-05-12T16:25:07.436Z,99.90
2019-05-12T16:30:13.826Z,99.90
2019-05-12T16:35:20.194Z,99.90
2019-05-12T16:40:23.878Z,99.90
2019-05-12T16:45:27.668Z,99.90
2019-05-12T16:50:31.316Z,99.90
2019-05-12T16:55:44.712Z,99.90
2019-05-12T17:00:45.138Z,99.90
2019-05-12T17:05:50.208Z,99.90
2019-05-12T17:11:00.998Z,99.90
2019-05-12T17:16:00.075Z,99.90
2019-05-12T17:21:04.054Z,99.90
2019-05-12T17:26:07.108Z,99.90
2019-05-12T17:31:12.424Z,99.90
2019-05-12T17:36:18.020Z,99.90
2019-05-12T17:41:23.624Z,99.90
2019-05-12T17:46:26.729Z,99.90
2019-05-12T17:51:30.986Z,99.90
2019-05-12T17:56:38.597Z,99.90
2019-05-12T18:01:40.055Z,99.90
2019-05-12T18:06:44.143Z,99.90
2019-05-12T18:11:54.212Z,99.90
2019-05-12T18:17:02.097Z,99.90
2019-05-12T18:22:03.080Z,99.90
2019-05-12T18:27:07.195Z,99.90
2019-05-12T18:32:15.734Z,99.90
2019-05-12T18:37:19.541Z,99.90
2019-05-12T18:42:27.375Z,99.90
2019-05-12T18:47:31.916Z,99.90
2019-05-12T18:52:39.337Z,99.90
2019-05-12T18:57:44.914Z,99.90
2019-05-12T19:02:44.458Z,99.90
2019-05-12T19:07:48.133Z,99.90
2019-05-12T19:13:00.794Z,99.90
2019-05-12T19:17:57.188Z,99.90
2019-05-12T19:23:03.001Z,99.90
2019-05-12T19:28:10.359Z,99.90
2019-05-12T19:33:13.765Z,99.90
2019-05-12T19:38:17.589Z,99.90
2019-05-12T19:43:23.556Z,99.90
2019-05-12T19:48:27.669Z,99.90
2019-05-12T19:53:33.216Z,99.90
2019-05-12T19:58:36.699Z,99.90
2019-05-12T20:03:40.325Z,99.90
2019-05-12T20:08:44.000Z,99.90
2019-05-12T20:13:47.641Z,99.90
2019-05-12T20:18:55.304Z,99.90
2019-05-12T20:23:56.574Z,99.90
2019-05-12T20:29:00.232Z,99.90
2019-05-12T20:34:08.626Z,99.90
2019-05-12T20:39:09.987Z,99.90
2019-05-12T20:44:17.202Z,99.90
2019-05-12T20:49:20.380Z,99.90
2019-05-12T20:54:24.199Z,99.90
2019-05-12T20:59:30.954Z,99.90
2019-05-12T21:04:37.978Z,99.90
2019-05-12T21:09:44.130Z,99.90
2019-05-12T21:14:51.414Z,99.90
2019-05-12T21:19:59.379Z,99.90
2019-05-12T21:25:10.578Z,99.90
2019-05-12T21:30:15.077Z,99.90
2019-05-12T21:35:25.639Z,99.90
2019-05-12T21:40:30.289Z,99.90
2019-05-12T21:45:36.092Z,99.90
2019-05-12T21:50:44.349Z,99.90
2019-05-12T21:55:48.099Z,99.90
2019-05-12T22:00:59.589Z,99.90
2019-05-12T22:06:06.554Z,99.90
2019-05-12T22:11:11.853Z,99.90
2019-05-12T22:16:19.798Z,99.90
2019-05-12T22:21:23.906Z,99.90
2019-05-12T22:26:36.461Z,99.90
2019-05-12T22:31:44.992Z,99.90
2019-05-12T22:36:45.328Z,99.90
2019-05-12T22:41:49.426Z,99.90
2019-05-12T22:46:54.779Z,99.90
2019-05-12T22:52:02.621Z,99.90
2019-05-12T22:57:07.949Z,99.90
2019-05-12T23:02:28.002Z,99.90
2019-05-12T23:07:28.406Z,99.90
2019-05-12T23:12:31.415Z,99.90
2019-05-12T23:17:45.202Z,99.90
2019-05-12T23:22:50.019Z,99.90
2019-05-12T23:28:00.313Z,99.90
2019-05-12T23:33:04.532Z,99.90
2019-05-12T23:38:18.753Z,99.90
2019-05-12T23:43:18.791Z,99.90
2019-05-12T23:48:24.574Z,99.90
2019-05-12T23:53:33.675Z,99.90
2019-05-12T23:58:37.572Z,99.90
